Terminal Aerodrome Forecast
Issued by NWS

Home | Current Version | Previous Version | Text Only | Print | Product List | Glossary On
Versions: 1 2 3 4 5 6 7 8 9 10 11 12 13 14
000
FTUS46 KSEW 220100 AAA
TAFBFI
TAF AMD
KBFI 220131Z 2202/2224 17005KT P6SM SCT020 BKN090 OVC150
     FM220300 17005KT P6SM SCT020 SCT090 OVC150
      TEMPO 2203/2206 BKN020 OVC090
     FM220600 16007KT P6SM OVC020
     FM222000 15005KT P6SM BKN045 BKN100=

USA.gov is the U.S. government's official web portal to all federal, state and local government web resources and services.